createdAt,value
2018-03-26T00:00:29.078Z,13.00
2018-03-26T00:01:28.987Z,12.20
2018-03-26T00:02:28.907Z,12.40
2018-03-26T00:03:28.826Z,13.40
2018-03-26T00:04:28.744Z,12.20
2018-03-26T00:05:28.664Z,12.40
2018-03-26T00:06:28.586Z,12.20
2018-03-26T00:07:28.501Z,12.60
2018-03-26T00:08:28.418Z,13.00
2018-03-26T00:09:28.337Z,13.40
2018-03-26T00:10:28.255Z,13.10
2018-03-26T00:11:28.175Z,12.10
2018-03-26T00:12:28.092Z,13.00
2018-03-26T00:13:28.011Z,13.00
2018-03-26T00:14:27.931Z,13.50
2018-03-26T00:15:27.850Z,13.10
2018-03-26T00:16:27.773Z,12.60
2018-03-26T00:17:27.686Z,12.80
2018-03-26T00:18:27.605Z,12.80
2018-03-26T00:19:27.524Z,13.10
2018-03-26T00:20:27.441Z,12.60
2018-03-26T00:21:27.365Z,13.40
2018-03-26T00:22:27.280Z,12.80
2018-03-26T00:23:27.198Z,11.90
2018-03-26T00:24:27.116Z,12.70
2018-03-26T00:25:27.035Z,13.10
2018-03-26T00:26:26.955Z,12.40
2018-03-26T00:27:26.874Z,13.30
2018-03-26T00:28:26.794Z,13.30
2018-03-26T00:29:26.710Z,13.40
2018-03-26T00:30:26.629Z,13.70
2018-03-26T00:31:26.549Z,14.10
2018-03-26T00:32:26.466Z,14.00
2018-03-26T00:33:26.384Z,14.50
2018-03-26T00:34:26.305Z,12.80
2018-03-26T00:35:26.224Z,12.70
2018-03-26T00:36:26.141Z,13.00
2018-03-26T00:37:26.060Z,13.40
2018-03-26T00:38:25.979Z,13.30
2018-03-26T00:39:25.898Z,12.80
2018-03-26T00:40:25.816Z,12.00
2018-03-26T00:41:25.733Z,13.20
2018-03-26T00:42:25.655Z,13.30
2018-03-26T00:43:25.574Z,13.70
2018-03-26T00:44:25.491Z,13.50
2018-03-26T00:45:25.410Z,14.60
2018-03-26T00:46:25.329Z,13.60
2018-03-26T00:47:25.248Z,13.00
2018-03-26T00:48:25.166Z,13.20
2018-03-26T00:49:25.086Z,12.70
2018-03-26T00:50:25.005Z,14.40
2018-03-26T00:51:24.925Z,13.40
2018-03-26T00:52:24.842Z,13.50
2018-03-26T00:53:24.761Z,13.40
2018-03-26T00:54:24.698Z,12.40
2018-03-26T00:55:24.599Z,13.00
2018-03-26T00:56:24.517Z,13.20
2018-03-26T00:57:24.438Z,13.20
2018-03-26T00:58:24.356Z,13.30
2018-03-26T00:59:24.275Z,13.10
2018-03-26T01:00:24.194Z,14.20
2018-03-26T01:01:24.115Z,13.00
2018-03-26T01:02:24.032Z,13.90
2018-03-26T01:03:23.951Z,13.40
2018-03-26T01:04:23.870Z,13.80
2018-03-26T01:05:23.790Z,13.70
2018-03-26T01:06:23.710Z,13.20
2018-03-26T01:07:23.630Z,12.40
2018-03-26T01:08:23.546Z,13.30
2018-03-26T01:09:23.466Z,13.30
2018-03-26T01:10:23.386Z,12.80
2018-03-26T01:11:23.304Z,12.60
2018-03-26T01:12:26.256Z,12.80
2018-03-26T01:13:23.142Z,13.50
2018-03-26T01:14:23.064Z,13.30
2018-03-26T01:15:22.982Z,13.10
2018-03-26T01:16:22.900Z,12.70
2018-03-26T01:17:22.819Z,13.70
2018-03-26T01:18:22.738Z,13.50
2018-03-26T01:19:22.659Z,13.20
2018-03-26T01:20:22.577Z,12.70
2018-03-26T01:21:22.496Z,13.40
2018-03-26T01:22:22.416Z,13.50
2018-03-26T01:23:22.336Z,13.00
2018-03-26T01:24:22.255Z,13.20
2018-03-26T01:25:22.174Z,13.10
2018-03-26T01:26:22.147Z,13.20
2018-03-26T01:27:22.014Z,13.40
2018-03-26T01:28:21.931Z,12.90
2018-03-26T01:29:21.852Z,13.90
2018-03-26T01:30:21.773Z,13.00
2018-03-26T01:31:21.691Z,13.30
2018-03-26T01:32:21.611Z,13.30
2018-03-26T01:33:21.530Z,13.40
2018-03-26T01:34:21.450Z,12.60
2018-03-26T01:35:21.370Z,13.60
2018-03-26T01:36:21.289Z,14.20
2018-03-26T01:37:21.209Z,14.60
2018-03-26T01:38:21.130Z,14.60
2018-03-26T01:39:21.050Z,15.50
2018-03-26T01:40:20.968Z,14.50
2018-03-26T01:41:20.888Z,14.40
2018-03-26T01:42:20.808Z,14.40
2018-03-26T01:43:20.728Z,15.10
2018-03-26T01:44:20.647Z,15.00
2018-03-26T01:45:20.567Z,15.00
2018-03-26T01:46:20.487Z,14.50
2018-03-26T01:47:20.407Z,14.10
2018-03-26T01:48:20.331Z,13.70
2018-03-26T01:49:20.248Z,14.20
2018-03-26T01:50:20.167Z,13.90
2018-03-26T01:51:20.086Z,14.50
2018-03-26T01:52:20.006Z,14.60
2018-03-26T01:53:19.926Z,15.10
2018-03-26T01:54:19.845Z,15.30
2018-03-26T01:55:19.765Z,14.80
2018-03-26T01:56:19.834Z,16.10
2018-03-26T01:57:19.604Z,14.60
2018-03-26T01:58:19.525Z,14.80
2018-03-26T01:59:19.446Z,14.50
2018-03-26T02:00:19.364Z,14.50
2018-03-26T02:01:19.284Z,15.50
2018-03-26T02:02:19.203Z,14.50
2018-03-26T02:03:19.124Z,14.40
2018-03-26T02:04:19.043Z,15.40
2018-03-26T02:05:18.963Z,15.10
2018-03-26T02:06:18.882Z,14.30
2018-03-26T02:07:18.806Z,14.80
2018-03-26T02:08:18.722Z,14.90
2018-03-26T02:09:18.642Z,14.70
2018-03-26T02:10:18.563Z,13.90
2018-03-26T02:11:18.485Z,15.00
2018-03-26T02:12:18.402Z,14.70
2018-03-26T02:13:18.324Z,14.00
2018-03-26T02:14:18.242Z,14.60
2018-03-26T02:15:18.164Z,15.20
2018-03-26T02:16:18.083Z,14.20
2018-03-26T02:17:18.004Z,15.00
2018-03-26T02:18:17.922Z,14.70
2018-03-26T02:19:17.842Z,16.00
2018-03-26T02:20:17.765Z,15.10
2018-03-26T02:21:17.682Z,15.30
2018-03-26T02:22:17.605Z,14.80
2018-03-26T02:23:17.523Z,15.10
2018-03-26T02:24:17.441Z,15.40
2018-03-26T02:25:17.362Z,14.20
2018-03-26T02:26:17.282Z,14.90
2018-03-26T02:27:17.202Z,14.80
2018-03-26T02:28:17.122Z,14.90
2018-03-26T02:29:17.041Z,14.70
2018-03-26T02:30:16.963Z,15.20
2018-03-26T02:31:16.884Z,14.30
2018-03-26T02:32:16.805Z,13.80
2018-03-26T02:33:16.724Z,14.40
2018-03-26T02:34:16.646Z,15.00
2018-03-26T02:35:16.575Z,14.70
2018-03-26T02:36:16.483Z,14.50
2018-03-26T02:37:16.409Z,15.60
2018-03-26T02:38:16.324Z,15.00
2018-03-26T02:39:16.243Z,14.40
2018-03-26T02:40:16.162Z,14.80
2018-03-26T02:41:16.082Z,14.90
2018-03-26T02:42:16.009Z,15.40
2018-03-26T02:43:15.923Z,15.10
2018-03-26T02:44:15.843Z,15.50
2018-03-26T02:45:15.764Z,15.30
2018-03-26T02:46:15.691Z,14.30
2018-03-26T02:47:15.602Z,15.20
2018-03-26T02:48:15.522Z,15.20
2018-03-26T02:49:15.444Z,15.20
2018-03-26T02:50:15.361Z,14.70
2018-03-26T02:51:15.282Z,15.20
2018-03-26T02:52:15.204Z,17.20
2018-03-26T02:53:15.120Z,15.80
2018-03-26T02:54:15.041Z,15.20
2018-03-26T02:55:14.966Z,17.00
2018-03-26T02:56:14.879Z,16.90
2018-03-26T02:57:14.806Z,16.60
2018-03-26T02:58:14.719Z,15.70
2018-03-26T02:59:14.639Z,16.20
2018-03-26T03:00:14.558Z,16.30
2018-03-26T03:01:14.478Z,16.40
2018-03-26T03:02:14.399Z,16.10
2018-03-26T03:03:14.318Z,16.70
2018-03-26T03:04:14.254Z,16.80
2018-03-26T03:05:14.158Z,16.60
2018-03-26T03:06:14.087Z,17.00
2018-03-26T03:07:14.000Z,16.70
2018-03-26T03:08:13.916Z,16.90
2018-03-26T03:09:13.842Z,16.70
2018-03-26T03:10:13.757Z,16.70
2018-03-26T03:11:13.678Z,16.70
2018-03-26T03:12:13.597Z,16.10
2018-03-26T03:13:13.517Z,16.80
2018-03-26T03:14:13.437Z,17.40
2018-03-26T03:15:13.358Z,17.50
2018-03-26T03:16:13.277Z,17.90
2018-03-26T03:17:13.197Z,17.20
2018-03-26T03:18:13.119Z,17.70
2018-03-26T03:19:13.037Z,17.20
2018-03-26T03:20:12.956Z,17.90
2018-03-26T03:21:12.876Z,17.80
2018-03-26T03:22:12.801Z,17.80
2018-03-26T03:23:12.718Z,18.00
2018-03-26T03:24:12.637Z,17.80
2018-03-26T03:25:12.556Z,17.80
2018-03-26T03:26:12.478Z,18.60
2018-03-26T03:27:12.406Z,17.80
2018-03-26T03:28:12.317Z,18.50
2018-03-26T03:29:12.238Z,19.20
2018-03-26T03:30:12.159Z,18.10
2018-03-26T03:31:12.081Z,18.50
2018-03-26T03:32:11.998Z,19.90
2018-03-26T03:33:11.919Z,18.40
2018-03-26T03:34:11.838Z,18.00
2018-03-26T03:35:11.759Z,19.20
2018-03-26T03:36:11.677Z,18.70
2018-03-26T03:37:11.598Z,17.90
2018-03-26T03:38:11.518Z,18.50
2018-03-26T03:39:11.439Z,18.80
2018-03-26T03:40:11.359Z,19.20
2018-03-26T03:41:11.279Z,19.20
2018-03-26T03:42:11.199Z,19.50
2018-03-26T03:43:11.120Z,19.00
2018-03-26T03:44:11.038Z,18.70
2018-03-26T03:45:10.959Z,20.00
2018-03-26T03:46:10.880Z,17.10
2018-03-26T03:47:10.800Z,19.40
2018-03-26T03:48:10.719Z,19.40
2018-03-26T03:49:10.643Z,19.20
2018-03-26T03:50:10.560Z,18.10
2018-03-26T03:51:10.481Z,19.20
2018-03-26T03:52:10.400Z,19.60
2018-03-26T03:53:10.320Z,18.90
2018-03-26T03:54:10.242Z,19.20
2018-03-26T03:55:10.161Z,20.20
2018-03-26T03:56:10.085Z,18.80
2018-03-26T03:57:10.001Z,19.20
2018-03-26T03:58:09.921Z,18.50
2018-03-26T03:59:09.841Z,19.50
2018-03-26T04:00:09.820Z,19.90
2018-03-26T04:01:09.681Z,19.40
2018-03-26T04:02:09.601Z,19.90
2018-03-26T04:03:09.521Z,20.60
2018-03-26T04:04:09.492Z,20.30
2018-03-26T04:05:09.360Z,21.30
2018-03-26T04:06:09.288Z,19.70
2018-03-26T04:07:09.201Z,22.10
2018-03-26T04:08:09.121Z,19.70
2018-03-26T04:09:09.041Z,19.50
2018-03-26T04:10:08.961Z,19.40
2018-03-26T04:11:08.882Z,19.30
2018-03-26T04:12:08.801Z,20.20
2018-03-26T04:13:08.721Z,19.70
2018-03-26T04:14:08.642Z,19.40
2018-03-26T04:15:08.562Z,21.50
2018-03-26T04:16:08.487Z,20.90
2018-03-26T04:17:08.406Z,19.80
2018-03-26T04:18:08.323Z,20.10
2018-03-26T04:19:08.243Z,20.10
2018-03-26T04:20:08.163Z,21.70
2018-03-26T04:21:08.084Z,21.40
2018-03-26T04:22:08.007Z,22.30
2018-03-26T04:23:07.923Z,19.00
2018-03-26T04:24:07.843Z,19.60
2018-03-26T04:25:07.765Z,20.20
2018-03-26T04:26:07.684Z,20.40
2018-03-26T04:27:07.605Z,20.50
2018-03-26T04:28:07.524Z,21.90
2018-03-26T04:29:07.445Z,22.40
2018-03-26T04:30:07.420Z,22.20
2018-03-26T04:31:07.286Z,21.10
2018-03-26T04:32:07.219Z,21.50
2018-03-26T04:33:07.125Z,21.50
2018-03-26T04:34:07.045Z,21.70
2018-03-26T04:35:06.965Z,20.30
2018-03-26T04:36:06.885Z,20.70
2018-03-26T04:37:06.807Z,20.80
2018-03-26T04:38:06.726Z,20.90
2018-03-26T04:39:06.647Z,21.30
2018-03-26T04:40:06.566Z,20.80
2018-03-26T04:41:06.486Z,21.60
2018-03-26T04:42:06.407Z,21.60
2018-03-26T04:43:06.330Z,21.20
2018-03-26T04:44:06.247Z,21.90
2018-03-26T04:45:06.167Z,20.60
2018-03-26T04:46:06.089Z,20.80
2018-03-26T04:47:06.008Z,21.30
2018-03-26T04:48:05.927Z,21.70
2018-03-26T04:49:05.849Z,23.00
2018-03-26T04:50:05.768Z,22.40
2018-03-26T04:51:05.688Z,21.80
2018-03-26T04:52:05.608Z,20.00
2018-03-26T04:53:05.528Z,21.00
2018-03-26T04:54:05.448Z,22.10
2018-03-26T04:55:05.371Z,20.80
2018-03-26T04:56:05.293Z,22.50
2018-03-26T04:57:05.210Z,20.30
2018-03-26T04:58:05.128Z,21.10
2018-03-26T04:59:05.050Z,20.30
2018-03-26T05:00:04.971Z,21.00
2018-03-26T05:01:04.891Z,20.60
2018-03-26T05:02:04.811Z,21.40
2018-03-26T05:03:04.731Z,22.00
2018-03-26T05:04:04.650Z,21.00
2018-03-26T05:05:04.570Z,21.80
2018-03-26T05:06:04.501Z,21.60
2018-03-26T05:07:04.491Z,22.00
2018-03-26T05:08:04.331Z,21.60
2018-03-26T05:09:04.295Z,21.80
2018-03-26T05:10:04.172Z,20.40
2018-03-26T05:11:04.094Z,23.00
2018-03-26T05:12:04.012Z,22.50
2018-03-26T05:13:03.932Z,20.90
2018-03-26T05:14:03.852Z,23.10
2018-03-26T05:15:03.773Z,21.90
2018-03-26T05:16:03.692Z,21.20
2018-03-26T05:17:03.613Z,21.90
2018-03-26T05:18:03.533Z,21.90
2018-03-26T05:19:03.455Z,22.80
2018-03-26T05:20:03.374Z,23.80
2018-03-26T05:21:03.294Z,21.60
2018-03-26T05:22:03.214Z,23.20
2018-03-26T05:23:03.134Z,23.00
2018-03-26T05:24:03.056Z,22.70
2018-03-26T05:25:02.975Z,22.30
2018-03-26T05:26:02.895Z,23.10
2018-03-26T05:27:02.816Z,23.20
2018-03-26T05:28:02.734Z,23.50
2018-03-26T05:29:02.655Z,22.60
2018-03-26T05:30:02.576Z,21.90
2018-03-26T05:31:02.538Z,21.40
2018-03-26T05:32:02.415Z,21.60
2018-03-26T05:33:02.336Z,22.60
2018-03-26T05:34:02.261Z,22.90
2018-03-26T05:35:02.178Z,23.50
2018-03-26T05:36:02.097Z,23.10
2018-03-26T05:37:02.017Z,23.70
2018-03-26T05:38:01.937Z,24.30
2018-03-26T05:39:01.859Z,23.00
2018-03-26T05:40:01.777Z,23.90
2018-03-26T05:41:01.698Z,23.90
2018-03-26T05:42:01.640Z,24.40
2018-03-26T05:43:01.538Z,24.40
2018-03-26T05:44:01.458Z,24.70
2018-03-26T05:45:01.379Z,23.70
2018-03-26T05:46:01.303Z,22.90
2018-03-26T05:47:01.220Z,23.10
2018-03-26T05:48:01.139Z,24.20
2018-03-26T05:49:01.059Z,23.70
2018-03-26T05:50:00.979Z,22.30
2018-03-26T05:51:00.900Z,22.60
2018-03-26T05:52:00.820Z,23.60
2018-03-26T05:53:00.740Z,24.10
2018-03-26T05:54:00.660Z,23.20
2018-03-26T05:55:00.580Z,23.10
2018-03-26T05:56:00.500Z,22.10
2018-03-26T05:57:00.420Z,22.70
2018-03-26T05:58:00.344Z,22.30
2018-03-26T05:59:00.261Z,22.90
2018-03-26T06:00:00.181Z,23.30
2018-03-26T06:01:00.102Z,22.40
2018-03-26T06:02:00.022Z,22.30
2018-03-26T06:02:59.942Z,23.90
2018-03-26T06:03:59.862Z,23.10
2018-03-26T06:04:59.782Z,23.40
2018-03-26T06:05:59.705Z,23.50
2018-03-26T06:06:59.622Z,22.90
2018-03-26T06:07:59.542Z,23.30
2018-03-26T06:08:59.463Z,22.90
2018-03-26T06:09:59.383Z,22.90
2018-03-26T06:10:59.303Z,23.40
2018-03-26T06:11:59.258Z,22.70
2018-03-26T06:12:59.143Z,23.20
2018-03-26T06:13:59.071Z,24.70
2018-03-26T06:14:58.985Z,23.90
2018-03-26T06:15:58.903Z,22.50
2018-03-26T06:16:58.823Z,23.60
2018-03-26T06:17:58.744Z,23.90
2018-03-26T06:18:58.665Z,23.80
2018-03-26T06:19:58.583Z,23.40
2018-03-26T06:20:58.505Z,22.00
2018-03-26T06:21:58.424Z,23.50
2018-03-26T06:22:58.345Z,22.90
2018-03-26T06:23:58.265Z,22.60
2018-03-26T06:24:58.244Z,23.60
2018-03-26T06:25:58.105Z,24.90
2018-03-26T06:26:58.025Z,25.70
2018-03-26T06:27:57.952Z,24.60
2018-03-26T06:28:57.867Z,26.20
2018-03-26T06:29:57.786Z,25.40
2018-03-26T06:30:57.707Z,26.30
2018-03-26T06:31:57.626Z,24.70
2018-03-26T06:32:57.547Z,26.50
2018-03-26T06:33:57.467Z,26.90
2018-03-26T06:34:57.387Z,25.90
2018-03-26T06:35:57.307Z,24.70
2018-03-26T06:36:57.228Z,26.00
2018-03-26T06:37:57.150Z,25.20
2018-03-26T06:38:57.070Z,24.40
2018-03-26T06:39:56.989Z,24.40
2018-03-26T06:40:56.910Z,25.00
2018-03-26T06:41:56.829Z,25.40
2018-03-26T06:42:56.751Z,25.00
2018-03-26T06:43:56.671Z,25.50
2018-03-26T06:44:56.595Z,24.90
2018-03-26T06:45:56.512Z,25.50
2018-03-26T06:46:56.438Z,24.70
2018-03-26T06:47:56.351Z,23.60
2018-03-26T06:48:56.274Z,24.70
2018-03-26T06:49:56.194Z,24.90
2018-03-26T06:50:56.115Z,25.40
2018-03-26T06:51:56.035Z,25.10
2018-03-26T06:52:55.956Z,24.30
2018-03-26T06:53:55.877Z,24.10
2018-03-26T06:54:55.798Z,24.10
2018-03-26T06:55:55.718Z,24.80
2018-03-26T06:56:55.640Z,24.20
2018-03-26T06:57:55.561Z,24.00
2018-03-26T06:58:55.482Z,24.20
2018-03-26T06:59:55.401Z,23.70
2018-03-26T07:00:55.332Z,25.20
2018-03-26T07:01:55.245Z,24.80
2018-03-26T07:02:55.165Z,25.70
2018-03-26T07:03:55.087Z,24.00
2018-03-26T07:04:55.006Z,24.40
2018-03-26T07:05:54.926Z,24.70
2018-03-26T07:06:54.850Z,27.80
2018-03-26T07:07:54.768Z,26.60
2018-03-26T07:08:54.688Z,26.20
2018-03-26T07:09:54.610Z,26.80
2018-03-26T07:10:54.531Z,24.20
2018-03-26T07:11:54.453Z,24.60
2018-03-26T07:12:54.372Z,25.70
2018-03-26T07:13:54.297Z,25.20
2018-03-26T07:14:54.214Z,25.40
2018-03-26T07:15:54.134Z,25.20
2018-03-26T07:16:54.056Z,25.90
2018-03-26T07:17:53.977Z,26.30
2018-03-26T07:18:53.953Z,25.70
2018-03-26T07:19:53.819Z,24.00
2018-03-26T07:20:53.740Z,25.40
2018-03-26T07:21:53.664Z,24.60
2018-03-26T07:22:53.582Z,24.60
2018-03-26T07:23:53.502Z,25.30
2018-03-26T07:24:53.430Z,26.10
2018-03-26T07:25:53.345Z,25.20
2018-03-26T07:26:53.267Z,26.10
2018-03-26T07:27:53.188Z,24.50
2018-03-26T07:28:53.165Z,24.60
2018-03-26T07:29:53.030Z,25.20
2018-03-26T07:30:52.953Z,25.10
2018-03-26T07:31:52.873Z,25.80
2018-03-26T07:32:52.793Z,25.50
2018-03-26T07:33:52.718Z,25.10
2018-03-26T07:34:52.637Z,25.30
2018-03-26T07:35:52.560Z,25.20
2018-03-26T07:36:52.479Z,25.30
2018-03-26T07:37:52.401Z,25.00
2018-03-26T07:38:52.326Z,24.30
2018-03-26T07:39:52.243Z,25.50
2018-03-26T07:40:52.165Z,25.20
2018-03-26T07:41:52.087Z,25.80
2018-03-26T07:42:52.008Z,24.60
2018-03-26T07:43:51.932Z,26.50
2018-03-26T07:44:51.852Z,25.70
2018-03-26T07:45:51.774Z,26.30
2018-03-26T07:46:51.696Z,25.40
2018-03-26T07:47:51.617Z,26.20
2018-03-26T07:48:51.540Z,25.50
2018-03-26T07:49:51.461Z,25.20
2018-03-26T07:50:51.384Z,26.40
2018-03-26T07:51:51.307Z,25.90
2018-03-26T07:52:51.227Z,26.40
2018-03-26T07:53:51.150Z,26.80
2018-03-26T07:54:51.071Z,25.80
2018-03-26T07:55:50.994Z,25.40
2018-03-26T07:56:50.916Z,24.10
2018-03-26T07:57:50.838Z,25.90
2018-03-26T07:58:50.762Z,24.40
2018-03-26T07:59:50.682Z,24.40
2018-03-26T08:00:50.604Z,24.80
2018-03-26T08:01:50.527Z,24.40
2018-03-26T08:02:50.449Z,25.40
2018-03-26T08:03:50.370Z,24.70
2018-03-26T08:04:50.294Z,24.60
2018-03-26T08:05:50.215Z,25.10
2018-03-26T08:06:50.139Z,25.70
2018-03-26T08:07:50.061Z,26.50
2018-03-26T08:08:49.982Z,24.60
2018-03-26T08:09:49.905Z,26.00
2018-03-26T08:10:49.828Z,25.00
2018-03-26T08:11:49.749Z,24.70
2018-03-26T08:12:49.672Z,24.60
2018-03-26T08:13:49.593Z,24.20
2018-03-26T08:14:49.516Z,23.70
2018-03-26T08:15:49.438Z,24.00
2018-03-26T08:16:49.363Z,25.00
2018-03-26T08:17:49.281Z,24.50
2018-03-26T08:18:49.206Z,25.40
2018-03-26T08:19:49.125Z,24.80
2018-03-26T08:20:49.048Z,25.50
2018-03-26T08:21:48.972Z,26.10
2018-03-26T08:22:48.892Z,25.00
2018-03-26T08:23:48.827Z,24.00
2018-03-26T08:24:48.738Z,24.70
2018-03-26T08:25:48.657Z,24.00
2018-03-26T08:26:48.581Z,25.60
2018-03-26T08:27:48.502Z,25.10
2018-03-26T08:28:48.423Z,25.50
2018-03-26T08:29:48.348Z,25.10
2018-03-26T08:30:48.270Z,25.50
2018-03-26T08:31:48.189Z,25.60
2018-03-26T08:32:48.112Z,26.00
2018-03-26T08:33:48.040Z,24.60
2018-03-26T08:34:47.958Z,27.00
2018-03-26T08:35:47.878Z,26.20
2018-03-26T08:36:47.801Z,26.20
2018-03-26T08:37:47.724Z,29.60
2018-03-26T08:38:47.648Z,26.70
2018-03-26T08:39:47.567Z,26.30
2018-03-26T08:40:47.491Z,25.70
2018-03-26T08:41:47.412Z,26.50
2018-03-26T08:42:47.335Z,25.10
2018-03-26T08:43:47.257Z,26.00
2018-03-26T08:44:47.180Z,26.70
2018-03-26T08:45:47.101Z,24.80
2018-03-26T08:46:47.023Z,26.00
2018-03-26T08:47:46.946Z,25.70
2018-03-26T08:48:46.882Z,25.80
2018-03-26T08:49:46.854Z,25.00
2018-03-26T08:50:46.713Z,25.70
2018-03-26T08:51:46.635Z,25.90
2018-03-26T08:52:46.562Z,25.70
2018-03-26T08:53:46.481Z,25.70
2018-03-26T08:54:46.403Z,27.90
2018-03-26T08:55:46.326Z,25.50
2018-03-26T08:56:46.248Z,26.00
2018-03-26T08:57:46.170Z,25.60
2018-03-26T08:58:46.095Z,26.00
2018-03-26T08:59:46.014Z,31.20
2018-03-26T09:00:45.938Z,35.10
2018-03-26T09:01:45.859Z,25.80
2018-03-26T09:02:45.783Z,25.00
2018-03-26T09:03:45.704Z,26.80
2018-03-26T09:04:45.627Z,25.10
2018-03-26T09:05:45.554Z,26.10
2018-03-26T09:06:45.472Z,25.10
2018-03-26T09:07:45.394Z,25.10
2018-03-26T09:08:45.316Z,24.90
2018-03-26T09:09:45.240Z,25.50
2018-03-26T09:10:45.161Z,24.80
2018-03-26T09:11:45.087Z,26.00
2018-03-26T09:12:45.006Z,24.60
2018-03-26T09:13:44.929Z,25.60
2018-03-26T09:14:44.851Z,25.30
2018-03-26T09:15:44.773Z,24.10
2018-03-26T09:16:44.695Z,25.10
2018-03-26T09:17:44.617Z,25.10
2018-03-26T09:18:44.540Z,26.40
2018-03-26T09:19:44.463Z,24.60
2018-03-26T09:20:44.387Z,26.20
2018-03-26T09:21:44.307Z,25.30
2018-03-26T09:22:44.229Z,25.50
2018-03-26T09:23:44.152Z,25.90
2018-03-26T09:24:44.074Z,24.90
2018-03-26T09:25:43.996Z,26.30
2018-03-26T09:26:43.919Z,25.20
2018-03-26T09:27:43.841Z,25.00
2018-03-26T09:28:43.763Z,25.20
2018-03-26T09:29:43.687Z,24.20
2018-03-26T09:30:43.607Z,25.90
2018-03-26T09:31:43.531Z,25.00
2018-03-26T09:32:43.453Z,25.50
2018-03-26T09:33:43.376Z,25.20
2018-03-26T09:34:43.299Z,24.70
2018-03-26T09:35:43.220Z,25.00
2018-03-26T09:36:43.143Z,24.90
2018-03-26T09:37:43.066Z,25.10
2018-03-26T09:38:43.042Z,25.40
2018-03-26T09:39:42.909Z,25.60
2018-03-26T09:40:42.833Z,24.10
2018-03-26T09:41:42.756Z,26.70
2018-03-26T09:42:42.678Z,25.90
2018-03-26T09:43:42.598Z,25.60
2018-03-26T09:44:42.522Z,24.60
2018-03-26T09:45:42.448Z,26.20
2018-03-26T09:46:42.369Z,24.40
2018-03-26T09:47:42.295Z,25.00
2018-03-26T09:48:42.214Z,25.10
2018-03-26T09:49:42.136Z,24.80
2018-03-26T09:50:42.059Z,24.60
2018-03-26T09:51:41.981Z,24.00
2018-03-26T09:52:41.911Z,26.10
2018-03-26T09:53:41.826Z,23.30
2018-03-26T09:54:41.750Z,25.40
2018-03-26T09:55:41.672Z,26.10
2018-03-26T09:56:41.595Z,24.70
2018-03-26T09:57:41.518Z,25.00
2018-03-26T09:58:41.446Z,25.70
2018-03-26T09:59:41.362Z,25.20
2018-03-26T10:00:41.287Z,24.60
2018-03-26T10:01:41.211Z,24.50
2018-03-26T10:02:41.133Z,24.50
2018-03-26T10:03:41.053Z,24.50
2018-03-26T10:04:40.976Z,24.40
2018-03-26T10:05:40.898Z,24.00
2018-03-26T10:06:40.820Z,23.60
2018-03-26T10:07:40.743Z,23.70
2018-03-26T10:08:40.666Z,23.50
2018-03-26T10:09:40.589Z,22.70
2018-03-26T10:10:40.511Z,23.50
2018-03-26T10:11:40.432Z,23.90
2018-03-26T10:12:40.355Z,24.50
2018-03-26T10:13:40.278Z,22.90
2018-03-26T10:14:40.201Z,23.40
2018-03-26T10:15:40.125Z,23.90
2018-03-26T10:16:40.046Z,23.10
2018-03-26T10:17:39.967Z,23.10
2018-03-26T10:18:39.890Z,24.10
2018-03-26T10:19:39.811Z,23.90
2018-03-26T10:20:39.734Z,23.80
2018-03-26T10:21:39.656Z,23.70
2018-03-26T10:22:39.579Z,23.30
2018-03-26T10:23:39.501Z,23.10
2018-03-26T10:24:39.423Z,23.00
2018-03-26T10:25:39.349Z,22.90
2018-03-26T10:26:39.268Z,23.20
2018-03-26T10:27:39.190Z,23.70
2018-03-26T10:28:39.112Z,24.70
2018-03-26T10:29:39.034Z,24.20
2018-03-26T10:30:38.957Z,24.60
2018-03-26T10:31:38.878Z,24.40
2018-03-26T10:32:38.800Z,25.20
2018-03-26T10:33:38.723Z,25.50
2018-03-26T10:34:38.647Z,23.80
2018-03-26T10:35:38.567Z,22.20
2018-03-26T10:36:38.489Z,22.60
2018-03-26T10:37:38.412Z,23.10
2018-03-26T10:38:38.335Z,23.20
2018-03-26T10:39:38.256Z,23.30
2018-03-26T10:40:38.185Z,23.60
2018-03-26T10:41:38.101Z,23.70
2018-03-26T10:42:38.023Z,23.30
2018-03-26T10:43:37.946Z,24.70
2018-03-26T10:44:37.872Z,24.10
2018-03-26T10:45:37.791Z,22.50
2018-03-26T10:46:37.714Z,23.70
2018-03-26T10:47:37.634Z,28.60
2018-03-26T10:48:37.557Z,27.00
2018-03-26T10:49:37.480Z,23.00
2018-03-26T10:50:37.404Z,22.50
2018-03-26T10:51:37.325Z,23.90
2018-03-26T10:52:37.247Z,23.80
2018-03-26T10:53:37.170Z,24.80
2018-03-26T10:54:37.093Z,22.80
2018-03-26T10:55:37.015Z,22.40
2018-03-26T10:56:36.937Z,23.00
2018-03-26T10:57:36.860Z,23.20
2018-03-26T10:58:36.782Z,23.10
2018-03-26T10:59:36.705Z,22.20
2018-03-26T11:00:36.627Z,22.80
2018-03-26T11:01:36.550Z,23.10
2018-03-26T11:02:36.473Z,23.80
2018-03-26T11:03:36.395Z,23.50
2018-03-26T11:04:36.318Z,22.10
2018-03-26T11:05:36.250Z,23.60
2018-03-26T11:06:36.163Z,23.70
2018-03-26T11:07:36.085Z,22.80
2018-03-26T11:08:36.009Z,22.00
2018-03-26T11:09:35.934Z,22.50
2018-03-26T11:10:35.854Z,21.40
2018-03-26T11:11:35.776Z,22.00
2018-03-26T11:12:35.699Z,21.90
2018-03-26T11:13:35.622Z,22.60
2018-03-26T11:14:35.544Z,22.70
2018-03-26T11:15:35.467Z,22.20
2018-03-26T11:16:35.389Z,23.00
2018-03-26T11:17:35.313Z,22.20
2018-03-26T11:18:35.236Z,22.20
2018-03-26T11:19:35.158Z,23.80
2018-03-26T11:20:35.092Z,22.30
2018-03-26T11:21:35.004Z,21.90
2018-03-26T11:22:34.953Z,21.40
2018-03-26T11:23:34.851Z,22.50
2018-03-26T11:24:34.773Z,22.00
2018-03-26T11:25:34.696Z,21.70
2018-03-26T11:26:34.618Z,22.30
2018-03-26T11:27:34.541Z,21.60
2018-03-26T11:28:34.466Z,22.20
2018-03-26T11:29:34.390Z,22.80
2018-03-26T11:30:34.310Z,22.70
2018-03-26T11:31:34.233Z,20.90
2018-03-26T11:32:34.158Z,23.70
2018-03-26T11:33:34.079Z,23.50
2018-03-26T11:34:34.001Z,22.80
2018-03-26T11:35:33.925Z,21.80
2018-03-26T11:36:33.848Z,23.10
2018-03-26T11:37:33.771Z,22.60
2018-03-26T11:38:33.695Z,22.40
2018-03-26T11:39:33.617Z,22.00
2018-03-26T11:40:33.540Z,22.10
2018-03-26T11:41:33.463Z,21.10
2018-03-26T11:42:33.387Z,22.10
2018-03-26T11:43:33.309Z,22.20
2018-03-26T11:44:33.233Z,21.90
2018-03-26T11:45:33.156Z,20.60
2018-03-26T11:46:33.080Z,22.30
2018-03-26T11:47:33.002Z,22.30
2018-03-26T11:48:32.926Z,22.20
2018-03-26T11:49:32.851Z,22.50
2018-03-26T11:50:32.771Z,22.50
2018-03-26T11:51:32.703Z,21.90
2018-03-26T11:52:32.619Z,22.50
2018-03-26T11:53:32.542Z,22.10
2018-03-26T11:54:32.466Z,22.40
2018-03-26T11:55:32.388Z,22.50
2018-03-26T11:56:32.313Z,21.80
2018-03-26T11:57:32.236Z,22.20
2018-03-26T11:58:32.160Z,22.60
2018-03-26T11:59:32.083Z,23.20
2018-03-26T12:00:32.005Z,22.20
2018-03-26T12:01:31.929Z,21.90
2018-03-26T12:02:31.854Z,22.20
2018-03-26T12:03:31.776Z,22.70
2018-03-26T12:04:31.700Z,22.80
2018-03-26T12:05:31.628Z,22.20
2018-03-26T12:06:31.547Z,22.70
2018-03-26T12:07:31.470Z,22.10
2018-03-26T12:08:31.400Z,21.80
2018-03-26T12:09:31.318Z,21.50
2018-03-26T12:10:31.243Z,21.90
2018-03-26T12:11:31.164Z,21.80
2018-03-26T12:12:31.088Z,21.50
2018-03-26T12:13:31.013Z,22.00
2018-03-26T12:14:30.935Z,21.80
2018-03-26T12:15:30.858Z,21.10
2018-03-26T12:16:30.783Z,22.70
2018-03-26T12:17:30.707Z,22.30
2018-03-26T12:18:30.629Z,21.20
2018-03-26T12:19:30.556Z,22.10
2018-03-26T12:20:30.476Z,22.20
2018-03-26T12:21:30.400Z,22.20
2018-03-26T12:22:30.323Z,23.00
2018-03-26T12:23:30.245Z,21.30
2018-03-26T12:24:30.174Z,22.70
2018-03-26T12:25:30.094Z,22.10
2018-03-26T12:26:30.017Z,22.90
2018-03-26T12:27:29.940Z,22.30
2018-03-26T12:28:29.864Z,23.20
2018-03-26T12:29:29.787Z,22.70
2018-03-26T12:30:29.711Z,21.60
2018-03-26T12:31:29.635Z,22.80
2018-03-26T12:32:29.610Z,21.10
2018-03-26T12:33:29.482Z,22.50
2018-03-26T12:34:29.405Z,22.50
2018-03-26T12:35:29.328Z,23.00
2018-03-26T12:36:29.251Z,22.40
2018-03-26T12:37:29.175Z,23.10
2018-03-26T12:38:29.099Z,24.20
2018-03-26T12:39:29.022Z,22.00
2018-03-26T12:40:28.946Z,23.40
2018-03-26T12:41:28.878Z,22.10
2018-03-26T12:42:28.794Z,22.50
2018-03-26T12:43:28.716Z,21.60
2018-03-26T12:44:28.641Z,22.20
2018-03-26T12:45:28.602Z,21.70
2018-03-26T12:46:28.492Z,21.30
2018-03-26T12:47:28.412Z,22.30
2018-03-26T12:48:28.337Z,23.20
2018-03-26T12:49:28.261Z,22.00
2018-03-26T12:50:28.185Z,22.30
2018-03-26T12:51:28.108Z,23.10